Terminal Aerodrome Forecast
Issued by NWS

Home | Current Version | Previous Version | Text Only | Print | Product List | Glossary On
Versions: 1 2 3 4 5 6 7 8 9 10 11 12 13 14 15
000
FTUS43 KIND 111700
TAFLAF
TAF
KLAF 111720Z 1118/1218 15004KT P6SM SCT250
     FM120000 18003KT P6SM SCT250
     FM120500 19003KT P6SM BKN100
     FM121400 23005KT P6SM BKN080=

USA.gov is the U.S. government's official web portal to all federal, state and local government web resources and services.